sensor_id;sensor_type;location;lat;lon;timestamp;temperature;humidity
20068;DHT22;10194;50.824;7.134;2024-03-22T00:01:14;9.50;99.90
20068;DHT22;10194;50.824;7.134;2024-03-22T00:03:40;9.50;99.90
20068;DHT22;10194;50.824;7.134;2024-03-22T00:06:06;9.50;99.90
20068;DHT22;10194;50.824;7.134;2024-03-22T00:08:31;9.50;99.90
20068;DHT22;10194;50.824;7.134;2024-03-22T00:10:57;9.40;99.90
20068;DHT22;10194;50.824;7.134;2024-03-22T00:13:23;9.30;99.90
20068;DHT22;10194;50.824;7.134;2024-03-22T00:15:49;9.40;99.90
20068;DHT22;10194;50.824;7.134;2024-03-22T00:18:15;9.40;99.90
20068;DHT22;10194;50.824;7.134;2024-03-22T00:20:41;9.30;99.90
20068;DHT22;10194;50.824;7.134;2024-03-22T00:23:06;9.40;99.90
20068;DHT22;10194;50.824;7.134;2024-03-22T00:25:32;9.30;99.90
20068;DHT22;10194;50.824;7.134;2024-03-22T00:27:58;9.30;99.90
20068;DHT22;10194;50.824;7.134;2024-03-22T00:30:24;9.40;99.90
20068;DHT22;10194;50.824;7.134;2024-03-22T00:32:49;9.40;99.90
20068;DHT22;10194;50.824;7.134;2024-03-22T00:35:15;9.50;99.90
20068;DHT22;10194;50.824;7.134;2024-03-22T00:37:41;9.60;99.90
20068;DHT22;10194;50.824;7.134;2024-03-22T00:40:07;9.40;99.90
20068;DHT22;10194;50.824;7.134;2024-03-22T00:42:33;9.40;99.90
20068;DHT22;10194;50.824;7.134;2024-03-22T00:44:58;9.40;99.90
20068;DHT22;10194;50.824;7.134;2024-03-22T00:47:24;9.50;99.90
20068;DHT22;10194;50.824;7.134;2024-03-22T00:49:50;9.50;99.90
20068;DHT22;10194;50.824;7.134;2024-03-22T00:52:16;9.50;99.90
20068;DHT22;10194;50.824;7.134;2024-03-22T00:54:41;9.30;99.90
20068;DHT22;10194;50.824;7.134;2024-03-22T00:57:08;9.20;99.90
20068;DHT22;10194;50.824;7.134;2024-03-22T00:59:34;9.10;99.90
20068;DHT22;10194;50.824;7.134;2024-03-22T01:02:00;9.10;99.90
20068;DHT22;10194;50.824;7.134;2024-03-22T01:04:25;9.00;99.90
20068;DHT22;10194;50.824;7.134;2024-03-22T01:06:51;9.10;99.90
20068;DHT22;10194;50.824;7.134;2024-03-22T01:09:17;9.00;99.90
20068;DHT22;10194;50.824;7.134;2024-03-22T01:11:43;8.90;99.90
20068;DHT22;10194;50.824;7.134;2024-03-22T01:14:08;8.90;99.90
20068;DHT22;10194;50.824;7.134;2024-03-22T01:16:34;8.80;99.90
20068;DHT22;10194;50.824;7.134;2024-03-22T01:19:00;8.80;99.90
20068;DHT22;10194;50.824;7.134;2024-03-22T01:21:25;8.80;99.90
20068;DHT22;10194;50.824;7.134;2024-03-22T01:23:54;8.90;99.90
20068;DHT22;10194;50.824;7.134;2024-03-22T01:26:20;8.80;99.90
20068;DHT22;10194;50.824;7.134;2024-03-22T01:28:46;8.80;99.90
20068;DHT22;10194;50.824;7.134;2024-03-22T01:31:12;8.90;99.90
20068;DHT22;10194;50.824;7.134;2024-03-22T01:33:38;8.90;99.90
20068;DHT22;10194;50.824;7.134;2024-03-22T01:36:04;8.80;99.90
20068;DHT22;10194;50.824;7.134;2024-03-22T01:38:31;9.00;99.90
20068;DHT22;10194;50.824;7.134;2024-03-22T01:40:57;8.90;99.90
20068;DHT22;10194;50.824;7.134;2024-03-22T01:43:22;8.90;99.90
20068;DHT22;10194;50.824;7.134;2024-03-22T01:45:48;9.10;99.90
20068;DHT22;10194;50.824;7.134;2024-03-22T01:48:14;9.10;99.90
20068;DHT22;10194;50.824;7.134;2024-03-22T01:50:41;9.00;99.90
20068;DHT22;10194;50.824;7.134;2024-03-22T01:53:08;9.10;99.90
20068;DHT22;10194;50.824;7.134;2024-03-22T01:55:34;9.20;99.90
20068;DHT22;10194;50.824;7.134;2024-03-22T01:58:00;9.40;99.90
20068;DHT22;10194;50.824;7.134;2024-03-22T02:00:26;9.50;99.90
20068;DHT22;10194;50.824;7.134;2024-03-22T02:02:51;9.50;99.90
20068;DHT22;10194;50.824;7.134;2024-03-22T02:05:18;9.60;99.90
20068;DHT22;10194;50.824;7.134;2024-03-22T02:07:47;9.60;99.90
20068;DHT22;10194;50.824;7.134;2024-03-22T02:10:13;9.50;99.90
20068;DHT22;10194;50.824;7.134;2024-03-22T02:12:40;9.60;99.90
20068;DHT22;10194;50.824;7.134;2024-03-22T02:15:07;9.50;99.90
20068;DHT22;10194;50.824;7.134;2024-03-22T02:17:34;9.60;99.90
20068;DHT22;10194;50.824;7.134;2024-03-22T02:20:01;9.60;99.90
20068;DHT22;10194;50.824;7.134;2024-03-22T02:22:27;9.50;99.90
20068;DHT22;10194;50.824;7.134;2024-03-22T02:24:53;9.60;99.90
20068;DHT22;10194;50.824;7.134;2024-03-22T02:27:19;9.60;99.90
20068;DHT22;10194;50.824;7.134;2024-03-22T02:29:45;9.70;99.90
20068;DHT22;10194;50.824;7.134;2024-03-22T02:32:11;9.60;99.90
20068;DHT22;10194;50.824;7.134;2024-03-22T02:34:37;9.70;99.90
20068;DHT22;10194;50.824;7.134;2024-03-22T02:37:03;9.70;99.90
20068;DHT22;10194;50.824;7.134;2024-03-22T02:39:28;9.60;99.90
20068;DHT22;10194;50.824;7.134;2024-03-22T02:41:55;9.70;99.90
20068;DHT22;10194;50.824;7.134;2024-03-22T02:44:21;9.80;99.90
20068;DHT22;10194;50.824;7.134;2024-03-22T02:46:47;9.80;99.90
20068;DHT22;10194;50.824;7.134;2024-03-22T02:49:13;9.70;99.90
20068;DHT22;10194;50.824;7.134;2024-03-22T02:51:39;9.60;99.90
20068;DHT22;10194;50.824;7.134;2024-03-22T02:54:05;9.60;99.90
20068;DHT22;10194;50.824;7.134;2024-03-22T02:56:30;9.60;99.90
20068;DHT22;10194;50.824;7.134;2024-03-22T02:58:56;9.50;99.90
20068;DHT22;10194;50.824;7.134;2024-03-22T03:01:22;9.50;99.90
20068;DHT22;10194;50.824;7.134;2024-03-22T03:03:48;9.60;99.90
20068;DHT22;10194;50.824;7.134;2024-03-22T03:06:13;9.50;99.90
20068;DHT22;10194;50.824;7.134;2024-03-22T03:08:40;9.60;99.90
20068;DHT22;10194;50.824;7.134;2024-03-22T03:11:06;9.70;99.90
20068;DHT22;10194;50.824;7.134;2024-03-22T03:13:32;9.60;99.90
20068;DHT22;10194;50.824;7.134;2024-03-22T03:15:58;9.70;99.90
20068;DHT22;10194;50.824;7.134;2024-03-22T03:18:23;9.80;99.90
20068;DHT22;10194;50.824;7.134;2024-03-22T03:20:49;9.80;99.90
20068;DHT22;10194;50.824;7.134;2024-03-22T03:23:15;9.80;99.90
20068;DHT22;10194;50.824;7.134;2024-03-22T03:25:41;9.80;99.90
20068;DHT22;10194;50.824;7.134;2024-03-22T03:28:07;9.80;99.90
20068;DHT22;10194;50.824;7.134;2024-03-22T03:30:35;9.70;99.90
20068;DHT22;10194;50.824;7.134;2024-03-22T03:33:01;9.70;99.90
20068;DHT22;10194;50.824;7.134;2024-03-22T03:35:27;9.80;99.90
20068;DHT22;10194;50.824;7.134;2024-03-22T03:37:54;9.80;99.90
20068;DHT22;10194;50.824;7.134;2024-03-22T03:40:20;9.80;99.90
20068;DHT22;10194;50.824;7.134;2024-03-22T03:42:47;9.70;99.90
20068;DHT22;10194;50.824;7.134;2024-03-22T03:45:13;9.80;99.90
20068;DHT22;10194;50.824;7.134;2024-03-22T03:47:38;9.90;99.90
20068;DHT22;10194;50.824;7.134;2024-03-22T03:50:04;9.90;99.90
20068;DHT22;10194;50.824;7.134;2024-03-22T03:52:30;9.90;99.90
20068;DHT22;10194;50.824;7.134;2024-03-22T03:54:56;9.90;99.90
20068;DHT22;10194;50.824;7.134;2024-03-22T03:57:22;9.90;99.90
20068;DHT22;10194;50.824;7.134;2024-03-22T03:59:47;10.00;99.90
20068;DHT22;10194;50.824;7.134;2024-03-22T04:02:13;10.00;99.90
20068;DHT22;10194;50.824;7.134;2024-03-22T04:04:39;10.00;99.90
20068;DHT22;10194;50.824;7.134;2024-03-22T04:07:05;10.00;99.90
20068;DHT22;10194;50.824;7.134;2024-03-22T04:09:30;10.00;99.90
20068;DHT22;10194;50.824;7.134;2024-03-22T04:11:57;10.00;99.90
20068;DHT22;10194;50.824;7.134;2024-03-22T04:14:25;10.00;99.90
20068;DHT22;10194;50.824;7.134;2024-03-22T04:16:53;10.00;99.90
20068;DHT22;10194;50.824;7.134;2024-03-22T04:19:21;10.00;99.90
20068;DHT22;10194;50.824;7.134;2024-03-22T04:21:48;10.00;99.90
20068;DHT22;10194;50.824;7.134;2024-03-22T04:24:14;10.00;99.90
20068;DHT22;10194;50.824;7.134;2024-03-22T04:26:40;10.00;99.90
20068;DHT22;10194;50.824;7.134;2024-03-22T04:29:06;10.00;99.90
20068;DHT22;10194;50.824;7.134;2024-03-22T04:31:32;10.00;99.90
20068;DHT22;10194;50.824;7.134;2024-03-22T04:33:57;10.10;99.90
20068;DHT22;10194;50.824;7.134;2024-03-22T04:36:23;10.20;99.90
20068;DHT22;10194;50.824;7.134;2024-03-22T04:38:49;10.20;99.90
20068;DHT22;10194;50.824;7.134;2024-03-22T04:41:14;10.20;99.90
20068;DHT22;10194;50.824;7.134;2024-03-22T04:43:40;10.10;99.90
20068;DHT22;10194;50.824;7.134;2024-03-22T04:46:06;10.10;99.90
20068;DHT22;10194;50.824;7.134;2024-03-22T04:48:32;10.10;99.90
20068;DHT22;10194;50.824;7.134;2024-03-22T04:50:57;10.10;99.90
20068;DHT22;10194;50.824;7.134;2024-03-22T04:53:23;10.10;99.90
20068;DHT22;10194;50.824;7.134;2024-03-22T04:55:50;9.90;99.90
20068;DHT22;10194;50.824;7.134;2024-03-22T04:58:17;9.90;99.90
20068;DHT22;10194;50.824;7.134;2024-03-22T05:00:45;9.90;99.90
20068;DHT22;10194;50.824;7.134;2024-03-22T05:03:12;9.90;99.90
20068;DHT22;10194;50.824;7.134;2024-03-22T05:05:39;9.80;99.90
20068;DHT22;10194;50.824;7.134;2024-03-22T05:08:06;9.70;99.90
20068;DHT22;10194;50.824;7.134;2024-03-22T05:10:32;9.70;99.90
20068;DHT22;10194;50.824;7.134;2024-03-22T05:12:58;9.60;99.90
20068;DHT22;10194;50.824;7.134;2024-03-22T05:15:24;9.50;99.90
20068;DHT22;10194;50.824;7.134;2024-03-22T05:17:51;9.30;99.90
20068;DHT22;10194;50.824;7.134;2024-03-22T05:20:17;9.20;99.90
20068;DHT22;10194;50.824;7.134;2024-03-22T05:22:43;9.20;99.90
20068;DHT22;10194;50.824;7.134;2024-03-22T05:25:09;9.40;99.90
20068;DHT22;10194;50.824;7.134;2024-03-22T05:27:36;9.40;99.90
20068;DHT22;10194;50.824;7.134;2024-03-22T05:30:02;9.40;99.90
20068;DHT22;10194;50.824;7.134;2024-03-22T05:32:31;9.30;99.90
20068;DHT22;10194;50.824;7.134;2024-03-22T05:34:57;9.30;99.90
20068;DHT22;10194;50.824;7.134;2024-03-22T05:37:22;9.40;99.90
20068;DHT22;10194;50.824;7.134;2024-03-22T05:39:48;9.40;99.90
20068;DHT22;10194;50.824;7.134;2024-03-22T05:42:14;9.50;99.90
20068;DHT22;10194;50.824;7.134;2024-03-22T05:44:40;9.50;99.90
20068;DHT22;10194;50.824;7.134;2024-03-22T05:47:06;9.60;99.90
20068;DHT22;10194;50.824;7.134;2024-03-22T05:49:32;9.70;99.90
20068;DHT22;10194;50.824;7.134;2024-03-22T05:51:57;9.70;99.90
20068;DHT22;10194;50.824;7.134;2024-03-22T05:54:23;9.70;99.90
20068;DHT22;10194;50.824;7.134;2024-03-22T05:56:49;9.80;99.90
20068;DHT22;10194;50.824;7.134;2024-03-22T05:59:15;9.80;99.90
20068;DHT22;10194;50.824;7.134;2024-03-22T06:01:40;9.80;99.90
20068;DHT22;10194;50.824;7.134;2024-03-22T06:04:06;9.80;99.90
20068;DHT22;10194;50.824;7.134;2024-03-22T06:06:33;9.80;99.90
20068;DHT22;10194;50.824;7.134;2024-03-22T06:08:59;9.80;99.90
20068;DHT22;10194;50.824;7.134;2024-03-22T06:11:29;9.80;99.90
20068;DHT22;10194;50.824;7.134;2024-03-22T06:13:55;9.90;99.90
20068;DHT22;10194;50.824;7.134;2024-03-22T06:16:21;10.10;99.90
20068;DHT22;10194;50.824;7.134;2024-03-22T06:18:48;10.20;99.90
20068;DHT22;10194;50.824;7.134;2024-03-22T06:21:13;10.30;99.90
20068;DHT22;10194;50.824;7.134;2024-03-22T06:23:50;10.40;99.90
20068;DHT22;10194;50.824;7.134;2024-03-22T06:26:17;10.50;99.90
20068;DHT22;10194;50.824;7.134;2024-03-22T06:28:42;10.50;99.90
20068;DHT22;10194;50.824;7.134;2024-03-22T06:31:08;10.50;99.90
20068;DHT22;10194;50.824;7.134;2024-03-22T06:33:34;10.60;99.90
20068;DHT22;10194;50.824;7.134;2024-03-22T06:36:00;10.80;99.90
20068;DHT22;10194;50.824;7.134;2024-03-22T06:38:27;10.90;99.90
20068;DHT22;10194;50.824;7.134;2024-03-22T06:40:52;11.00;99.90
20068;DHT22;10194;50.824;7.134;2024-03-22T06:43:18;10.90;99.90
20068;DHT22;10194;50.824;7.134;2024-03-22T06:45:44;10.90;99.90
20068;DHT22;10194;50.824;7.134;2024-03-22T06:48:10;11.00;99.90
20068;DHT22;10194;50.824;7.134;2024-03-22T06:50:35;11.00;99.90
20068;DHT22;10194;50.824;7.134;2024-03-22T06:53:01;11.00;99.90
20068;DHT22;10194;50.824;7.134;2024-03-22T06:55:27;11.00;99.90
20068;DHT22;10194;50.824;7.134;2024-03-22T06:57:52;11.10;99.90
20068;DHT22;10194;50.824;7.134;2024-03-22T07:00:19;11.20;99.90
20068;DHT22;10194;50.824;7.134;2024-03-22T07:02:45;11.20;99.90
20068;DHT22;10194;50.824;7.134;2024-03-22T07:07:46;11.20;99.90
20068;DHT22;10194;50.824;7.134;2024-03-22T07:10:12;11.30;99.90
20068;DHT22;10194;50.824;7.134;2024-03-22T07:12:37;11.40;99.90
20068;DHT22;10194;50.824;7.134;2024-03-22T07:15:03;11.40;99.90
20068;DHT22;10194;50.824;7.134;2024-03-22T07:17:30;11.50;99.90
20068;DHT22;10194;50.824;7.134;2024-03-22T07:19:56;11.80;99.90
20068;DHT22;10194;50.824;7.134;2024-03-22T07:22:22;12.00;99.90
20068;DHT22;10194;50.824;7.134;2024-03-22T07:24:48;12.20;99.90
20068;DHT22;10194;50.824;7.134;2024-03-22T07:27:14;12.50;99.90
20068;DHT22;10194;50.824;7.134;2024-03-22T07:29:40;13.10;99.90
20068;DHT22;10194;50.824;7.134;2024-03-22T07:32:07;13.70;99.90
20068;DHT22;10194;50.824;7.134;2024-03-22T07:34:32;13.80;99.90
20068;DHT22;10194;50.824;7.134;2024-03-22T07:36:58;13.70;99.90
20068;DHT22;10194;50.824;7.134;2024-03-22T07:39:24;14.10;99.90
20068;DHT22;10194;50.824;7.134;2024-03-22T07:41:50;14.90;99.90
20068;DHT22;10194;50.824;7.134;2024-03-22T07:44:16;15.30;99.90
20068;DHT22;10194;50.824;7.134;2024-03-22T07:46:46;15.00;99.90
20068;DHT22;10194;50.824;7.134;2024-03-22T07:49:15;14.60;99.90
20068;DHT22;10194;50.824;7.134;2024-03-22T07:51:41;14.40;99.90
20068;DHT22;10194;50.824;7.134;2024-03-22T07:54:06;14.40;99.90
20068;DHT22;10194;50.824;7.134;2024-03-22T07:56:32;14.50;99.90
20068;DHT22;10194;50.824;7.134;2024-03-22T07:58:58;14.30;99.90
20068;DHT22;10194;50.824;7.134;2024-03-22T08:01:24;14.40;99.90
20068;DHT22;10194;50.824;7.134;2024-03-22T08:03:51;14.40;99.90
20068;DHT22;10194;50.824;7.134;2024-03-22T08:06:16;14.50;99.90
20068;DHT22;10194;50.824;7.134;2024-03-22T08:08:42;14.70;99.90
20068;DHT22;10194;50.824;7.134;2024-03-22T08:11:08;14.90;99.90
20068;DHT22;10194;50.824;7.134;2024-03-22T08:13:34;15.10;99.90
20068;DHT22;10194;50.824;7.134;2024-03-22T08:16:00;15.00;99.90
20068;DHT22;10194;50.824;7.134;2024-03-22T08:18:26;15.10;99.90
20068;DHT22;10194;50.824;7.134;2024-03-22T08:20:52;15.40;99.90
20068;DHT22;10194;50.824;7.134;2024-03-22T08:23:17;15.60;99.90
20068;DHT22;10194;50.824;7.134;2024-03-22T08:25:46;15.80;99.90
20068;DHT22;10194;50.824;7.134;2024-03-22T08:28:11;15.80;99.90
20068;DHT22;10194;50.824;7.134;2024-03-22T08:30:39;15.60;99.90
20068;DHT22;10194;50.824;7.134;2024-03-22T08:33:05;15.40;99.90
20068;DHT22;10194;50.824;7.134;2024-03-22T08:35:31;15.20;99.90
20068;DHT22;10194;50.824;7.134;2024-03-22T08:37:57;15.10;99.90
20068;DHT22;10194;50.824;7.134;2024-03-22T08:40:24;15.00;99.90
20068;DHT22;10194;50.824;7.134;2024-03-22T08:42:50;15.00;99.90
20068;DHT22;10194;50.824;7.134;2024-03-22T08:45:15;15.20;99.90
20068;DHT22;10194;50.824;7.134;2024-03-22T08:47:42;15.40;99.90
20068;DHT22;10194;50.824;7.134;2024-03-22T08:50:11;15.60;99.90
20068;DHT22;10194;50.824;7.134;2024-03-22T08:52:36;15.70;99.90
20068;DHT22;10194;50.824;7.134;2024-03-22T08:55:04;15.70;99.90
20068;DHT22;10194;50.824;7.134;2024-03-22T08:57:32;15.70;99.90
20068;DHT22;10194;50.824;7.134;2024-03-22T08:59:58;15.80;99.90
20068;DHT22;10194;50.824;7.134;2024-03-22T09:02:24;15.80;99.90
20068;DHT22;10194;50.824;7.134;2024-03-22T09:04:50;15.60;99.90
20068;DHT22;10194;50.824;7.134;2024-03-22T09:07:16;15.50;99.90
20068;DHT22;10194;50.824;7.134;2024-03-22T09:09:42;15.50;99.90
20068;DHT22;10194;50.824;7.134;2024-03-22T09:12:08;15.50;99.90
20068;DHT22;10194;50.824;7.134;2024-03-22T09:14:34;15.50;99.90
20068;DHT22;10194;50.824;7.134;2024-03-22T09:17:00;15.50;99.90
20068;DHT22;10194;50.824;7.134;2024-03-22T09:19:25;15.60;99.90
20068;DHT22;10194;50.824;7.134;2024-03-22T09:21:51;15.60;99.90
20068;DHT22;10194;50.824;7.134;2024-03-22T09:24:17;15.60;99.90
20068;DHT22;10194;50.824;7.134;2024-03-22T09:26:43;15.60;99.90
20068;DHT22;10194;50.824;7.134;2024-03-22T09:29:08;15.60;99.90
20068;DHT22;10194;50.824;7.134;2024-03-22T09:31:34;15.60;99.90
20068;DHT22;10194;50.824;7.134;2024-03-22T09:34:01;15.90;99.90
20068;DHT22;10194;50.824;7.134;2024-03-22T09:36:26;16.10;99.90
20068;DHT22;10194;50.824;7.134;2024-03-22T09:38:52;16.20;99.90
20068;DHT22;10194;50.824;7.134;2024-03-22T09:41:24;16.30;99.90
20068;DHT22;10194;50.824;7.134;2024-03-22T09:43:51;16.40;99.90
20068;DHT22;10194;50.824;7.134;2024-03-22T09:46:20;16.50;99.90
20068;DHT22;10194;50.824;7.134;2024-03-22T09:48:49;16.50;99.90
20068;DHT22;10194;50.824;7.134;2024-03-22T09:51:16;16.50;99.90
20068;DHT22;10194;50.824;7.134;2024-03-22T09:53:45;16.40;99.90
20068;DHT22;10194;50.824;7.134;2024-03-22T09:56:14;16.40;99.90
20068;DHT22;10194;50.824;7.134;2024-03-22T09:58:44;16.50;99.90
20068;DHT22;10194;50.824;7.134;2024-03-22T10:01:11;16.50;99.90
20068;DHT22;10194;50.824;7.134;2024-03-22T10:03:38;16.60;99.90
20068;DHT22;10194;50.824;7.134;2024-03-22T10:06:04;16.80;99.90
20068;DHT22;10194;50.824;7.134;2024-03-22T10:08:30;17.00;99.90
20068;DHT22;10194;50.824;7.134;2024-03-22T10:10:56;17.10;99.90
20068;DHT22;10194;50.824;7.134;2024-03-22T10:13:22;17.10;99.90
20068;DHT22;10194;50.824;7.134;2024-03-22T10:15:48;17.10;99.90
20068;DHT22;10194;50.824;7.134;2024-03-22T10:18:14;17.10;99.90
20068;DHT22;10194;50.824;7.134;2024-03-22T10:20:41;17.10;99.90
20068;DHT22;10194;50.824;7.134;2024-03-22T10:23:08;17.10;99.90
20068;DHT22;10194;50.824;7.134;2024-03-22T10:25:34;17.10;99.90
20068;DHT22;10194;50.824;7.134;2024-03-22T10:28:01;17.00;99.90
20068;DHT22;10194;50.824;7.134;2024-03-22T10:30:27;17.10;99.90
20068;DHT22;10194;50.824;7.134;2024-03-22T10:32:53;17.10;99.90
20068;DHT22;10194;50.824;7.134;2024-03-22T10:35:20;17.00;99.90
20068;DHT22;10194;50.824;7.134;2024-03-22T10:37:46;16.80;99.90
20068;DHT22;10194;50.824;7.134;2024-03-22T10:40:12;16.80;99.90
20068;DHT22;10194;50.824;7.134;2024-03-22T10:42:40;16.80;99.90
20068;DHT22;10194;50.824;7.134;2024-03-22T10:45:08;16.80;99.90
20068;DHT22;10194;50.824;7.134;2024-03-22T10:47:36;16.80;99.90
20068;DHT22;10194;50.824;7.134;2024-03-22T10:50:10;16.80;99.90
20068;DHT22;10194;50.824;7.134;2024-03-22T10:52:48;16.50;99.90
20068;DHT22;10194;50.824;7.134;2024-03-22T10:55:27;16.50;99.90
20068;DHT22;10194;50.824;7.134;2024-03-22T10:57:56;16.70;99.90
20068;DHT22;10194;50.824;7.134;2024-03-22T11:00:33;16.90;99.90
20068;DHT22;10194;50.824;7.134;2024-03-22T11:03:02;17.00;99.90
20068;DHT22;10194;50.824;7.134;2024-03-22T11:05:28;17.10;99.90
20068;DHT22;10194;50.824;7.134;2024-03-22T11:08:04;17.30;99.90
20068;DHT22;10194;50.824;7.134;2024-03-22T11:10:34;17.50;99.90
20068;DHT22;10194;50.824;7.134;2024-03-22T11:13:04;17.60;99.90
20068;DHT22;10194;50.824;7.134;2024-03-22T11:15:30;17.50;99.90
20068;DHT22;10194;50.824;7.134;2024-03-22T11:17:57;17.40;99.90
20068;DHT22;10194;50.824;7.134;2024-03-22T11:20:23;17.50;99.90
20068;DHT22;10194;50.824;7.134;2024-03-22T11:22:51;17.50;99.90
20068;DHT22;10194;50.824;7.134;2024-03-22T11:25:17;17.60;99.90
20068;DHT22;10194;50.824;7.134;2024-03-22T11:27:44;17.70;99.90
20068;DHT22;10194;50.824;7.134;2024-03-22T11:30:10;17.70;99.90
20068;DHT22;10194;50.824;7.134;2024-03-22T11:32:36;17.70;99.90
20068;DHT22;10194;50.824;7.134;2024-03-22T11:35:13;17.80;99.90
20068;DHT22;10194;50.824;7.134;2024-03-22T11:37:39;17.60;99.90
20068;DHT22;10194;50.824;7.134;2024-03-22T11:40:09;17.60;99.90
20068;DHT22;10194;50.824;7.134;2024-03-22T11:42:47;17.60;99.90
20068;DHT22;10194;50.824;7.134;2024-03-22T11:45:16;17.90;99.90
20068;DHT22;10194;50.824;7.134;2024-03-22T11:47:46;17.90;99.90
20068;DHT22;10194;50.824;7.134;2024-03-22T11:50:13;17.90;99.90
20068;DHT22;10194;50.824;7.134;2024-03-22T11:52:43;18.10;99.90
20068;DHT22;10194;50.824;7.134;2024-03-22T11:55:13;17.80;99.90
20068;DHT22;10194;50.824;7.134;2024-03-22T11:57:39;17.60;99.90
20068;DHT22;10194;50.824;7.134;2024-03-22T12:00:05;17.50;99.90
20068;DHT22;10194;50.824;7.134;2024-03-22T12:02:38;17.60;99.90
20068;DHT22;10194;50.824;7.134;2024-03-22T12:05:05;17.60;99.90
20068;DHT22;10194;50.824;7.134;2024-03-22T12:07:31;17.60;99.90
20068;DHT22;10194;50.824;7.134;2024-03-22T12:09:58;17.60;99.90
20068;DHT22;10194;50.824;7.134;2024-03-22T12:12:24;17.60;99.90
20068;DHT22;10194;50.824;7.134;2024-03-22T12:14:50;17.30;99.90
20068;DHT22;10194;50.824;7.134;2024-03-22T12:17:17;17.20;99.90
20068;DHT22;10194;50.824;7.134;2024-03-22T12:19:43;17.40;99.90
20068;DHT22;10194;50.824;7.134;2024-03-22T12:22:09;17.30;99.90
20068;DHT22;10194;50.824;7.134;2024-03-22T12:24:36;17.40;99.90
20068;DHT22;10194;50.824;7.134;2024-03-22T12:27:02;17.40;99.90
20068;DHT22;10194;50.824;7.134;2024-03-22T12:29:28;17.40;99.90
20068;DHT22;10194;50.824;7.134;2024-03-22T12:31:53;17.50;99.90
20068;DHT22;10194;50.824;7.134;2024-03-22T12:34:19;17.40;99.90
20068;DHT22;10194;50.824;7.134;2024-03-22T12:36:45;17.40;99.90
20068;DHT22;10194;50.824;7.134;2024-03-22T12:39:11;17.50;99.90
20068;DHT22;10194;50.824;7.134;2024-03-22T12:41:37;17.40;99.90
20068;DHT22;10194;50.824;7.134;2024-03-22T12:44:03;17.20;99.90
20068;DHT22;10194;50.824;7.134;2024-03-22T12:46:29;17.00;99.90
20068;DHT22;10194;50.824;7.134;2024-03-22T12:48:55;16.80;99.90
20068;DHT22;10194;50.824;7.134;2024-03-22T12:51:20;16.80;99.90
20068;DHT22;10194;50.824;7.134;2024-03-22T12:53:46;16.70;99.90
20068;DHT22;10194;50.824;7.134;2024-03-22T12:56:12;16.60;99.90
20068;DHT22;10194;50.824;7.134;2024-03-22T12:58:38;16.50;99.90
20068;DHT22;10194;50.824;7.134;2024-03-22T13:01:09;16.40;99.90
20068;DHT22;10194;50.824;7.134;2024-03-22T13:03:36;16.30;99.90
20068;DHT22;10194;50.824;7.134;2024-03-22T13:06:05;16.30;99.90
20068;DHT22;10194;50.824;7.134;2024-03-22T13:08:32;16.30;99.90
20068;DHT22;10194;50.824;7.134;2024-03-22T13:10:58;16.30;99.90
20068;DHT22;10194;50.824;7.134;2024-03-22T13:13:23;16.20;99.90
20068;DHT22;10194;50.824;7.134;2024-03-22T13:15:49;16.20;99.90
20068;DHT22;10194;50.824;7.134;2024-03-22T13:18:15;16.20;99.90
20068;DHT22;10194;50.824;7.134;2024-03-22T13:20:41;16.20;99.90
20068;DHT22;10194;50.824;7.134;2024-03-22T13:23:06;16.30;99.90
20068;DHT22;10194;50.824;7.134;2024-03-22T13:25:35;16.50;99.90
20068;DHT22;10194;50.824;7.134;2024-03-22T13:28:03;16.50;99.90
20068;DHT22;10194;50.824;7.134;2024-03-22T13:30:30;16.70;99.90
20068;DHT22;10194;50.824;7.134;2024-03-22T13:32:57;16.80;99.90
20068;DHT22;10194;50.824;7.134;2024-03-22T13:35:22;16.80;99.90
20068;DHT22;10194;50.824;7.134;2024-03-22T13:37:48;16.80;99.90
20068;DHT22;10194;50.824;7.134;2024-03-22T13:40:15;16.90;99.90
20068;DHT22;10194;50.824;7.134;2024-03-22T13:42:41;16.90;99.90
20068;DHT22;10194;50.824;7.134;2024-03-22T13:45:07;16.80;99.90
20068;DHT22;10194;50.824;7.134;2024-03-22T13:47:33;16.70;99.90
20068;DHT22;10194;50.824;7.134;2024-03-22T13:49:59;16.60;99.90
20068;DHT22;10194;50.824;7.134;2024-03-22T13:52:25;16.70;99.90
20068;DHT22;10194;50.824;7.134;2024-03-22T13:54:51;16.60;99.90
20068;DHT22;10194;50.824;7.134;2024-03-22T13:57:17;16.60;99.90
20068;DHT22;10194;50.824;7.134;2024-03-22T13:59:43;16.70;99.90
20068;DHT22;10194;50.824;7.134;2024-03-22T14:02:09;16.80;99.90
20068;DHT22;10194;50.824;7.134;2024-03-22T14:04:35;16.80;99.90
20068;DHT22;10194;50.824;7.134;2024-03-22T14:07:01;16.90;99.90
20068;DHT22;10194;50.824;7.134;2024-03-22T14:09:33;17.00;99.90
20068;DHT22;10194;50.824;7.134;2024-03-22T14:11:59;16.90;99.90
20068;DHT22;10194;50.824;7.134;2024-03-22T14:14:26;16.80;99.90
20068;DHT22;10194;50.824;7.134;2024-03-22T14:16:52;16.90;99.90
20068;DHT22;10194;50.824;7.134;2024-03-22T14:19:18;16.90;99.90
20068;DHT22;10194;50.824;7.134;2024-03-22T14:21:45;16.70;99.90
20068;DHT22;10194;50.824;7.134;2024-03-22T14:24:14;16.50;99.90
20068;DHT22;10194;50.824;7.134;2024-03-22T14:26:40;16.60;99.90
20068;DHT22;10194;50.824;7.134;2024-03-22T14:29:12;16.50;99.90
20068;DHT22;10194;50.824;7.134;2024-03-22T14:31:38;16.60;99.90
20068;DHT22;10194;50.824;7.134;2024-03-22T14:34:06;16.50;99.90
20068;DHT22;10194;50.824;7.134;2024-03-22T14:36:32;16.40;99.90
20068;DHT22;10194;50.824;7.134;2024-03-22T14:38:58;16.50;99.90
20068;DHT22;10194;50.824;7.134;2024-03-22T14:41:24;16.40;99.90
20068;DHT22;10194;50.824;7.134;2024-03-22T14:43:50;16.30;99.90
20068;DHT22;10194;50.824;7.134;2024-03-22T14:46:16;16.40;99.90
20068;DHT22;10194;50.824;7.134;2024-03-22T14:48:45;16.60;99.90
20068;DHT22;10194;50.824;7.134;2024-03-22T14:51:11;16.60;99.90
20068;DHT22;10194;50.824;7.134;2024-03-22T14:53:37;16.60;99.90
20068;DHT22;10194;50.824;7.134;2024-03-22T14:56:03;16.70;99.90
20068;DHT22;10194;50.824;7.134;2024-03-22T14:58:36;16.60;99.90
20068;DHT22;10194;50.824;7.134;2024-03-22T15:01:05;16.60;99.90
20068;DHT22;10194;50.824;7.134;2024-03-22T15:03:32;16.60;99.90
20068;DHT22;10194;50.824;7.134;2024-03-22T15:05:59;16.70;99.90
20068;DHT22;10194;50.824;7.134;2024-03-22T15:08:25;16.60;99.90
20068;DHT22;10194;50.824;7.134;2024-03-22T15:10:52;16.50;99.90
20068;DHT22;10194;50.824;7.134;2024-03-22T15:13:18;16.30;99.90
20068;DHT22;10194;50.824;7.134;2024-03-22T15:15:54;16.20;99.90
20068;DHT22;10194;50.824;7.134;2024-03-22T15:18:21;16.20;99.90
20068;DHT22;10194;50.824;7.134;2024-03-22T15:20:47;16.20;99.90
20068;DHT22;10194;50.824;7.134;2024-03-22T15:23:14;16.10;99.90
20068;DHT22;10194;50.824;7.134;2024-03-22T15:25:44;16.10;99.90
20068;DHT22;10194;50.824;7.134;2024-03-22T15:28:10;16.10;99.90
20068;DHT22;10194;50.824;7.134;2024-03-22T15:30:37;16.00;99.90
20068;DHT22;10194;50.824;7.134;2024-03-22T15:33:04;16.10;99.90